Terminal Aerodrome Forecast
Issued by NWS Jacksonville, FL

Home | Current Version | Previous Version | Text Only | Print | Product List | Glossary On
Versions: 1 2 3 4 5 6 7 8 9 10 11 12 13 14 15 16 17 18 19 20 21 22 23 24
000
FTUS42 KJAX 261244 AAA
TAFGNV
TAF AMD
KGNV 261244Z 2613/2712 25009KT 5SM BR VCSH BKN015
      TEMPO 2613/2615 SCT015 BKN025
     FM261500 26012G21KT P6SM VCTS SCT040CB BKN250
     FM262200 23008KT P6SM VCSH SCT030 BKN150 BKN250
     FM270600 28005KT P6SM SCT250=

USA.gov is the U.S. government's official web portal to all federal, state and local government web resources and services.